Skip Navigation Links Skip Navigation Links

Current Weather

Palo Alto Arpt Of Santa Clara Co, Palo Alto, Calif.

For information only: do not use for flight planning or navigation.
Latest weather
Observation time Monday, November 29, 2021 12:47 PM PST
Local time Monday, November 29, 2021 1:15 PM PST
Flight conditions Visual Meteorological Conditions
Winds
Wind direction North-Northeast (30°)
Wind speed 6 mph
Visibility 8 mi.
Sky condition
Ceiling unlimited
Sky clear
Temperature 61°F
Dewpoint 54°F
Altimeter 30.14 in.Hg
Derived measurements
Relative humidity 77%
Density altitude 69 ft.
METAR KPAO 292047Z 03005KT 8SM SKC 16/12 A3014 HZ

Settings

Location code

InnerDrive.Weather 4.0.6770.0 Release CLR 4.0.30319.42000
Copyright ©2018 Inner Drive Technology. All rights reserved. Portions Copyright ©1986-2018 David Braverman.

Find weather

Site navigation


Skip Navigation Links

Place info

Page info

PayPal - The safer, easier way to pay online!

Return home.

Copyright ©2021 Inner Drive Technology. Purveyors of fine, hand-crafted computer software. Page printed 2021-11-29T21:15:33 UTC.